createdAt,value
2023-03-30T00:01:15.284Z,60.78
2023-03-30T00:03:44.979Z,61.24
2023-03-30T00:06:21.123Z,61.60
2023-03-30T00:08:50.248Z,62.20
2023-03-30T00:11:17.774Z,62.20
2023-03-30T00:13:45.334Z,61.62
2023-03-30T00:16:14.631Z,62.10
2023-03-30T00:18:42.035Z,62.65
2023-03-30T00:21:11.255Z,63.09
2023-03-30T00:23:39.618Z,63.37
2023-03-30T00:26:08.850Z,62.99
2023-03-30T00:28:36.470Z,63.89
2023-03-30T00:31:04.533Z,64.25
2023-03-30T00:33:44.905Z,63.48
2023-03-30T00:36:14.053Z,63.70
2023-03-30T00:38:41.483Z,63.84
2023-03-30T00:41:09.508Z,64.66
2023-03-30T00:44:42.814Z,64.73
2023-03-30T00:47:10.586Z,64.25
2023-03-30T00:49:37.888Z,64.26
2023-03-30T00:52:06.020Z,64.90
2023-03-30T00:54:33.414Z,64.91
2023-03-30T00:57:01.218Z,64.75
2023-03-30T00:59:28.650Z,64.11
2023-03-30T01:01:56.685Z,64.15
2023-03-30T01:04:25.949Z,64.49
2023-03-30T01:06:55.285Z,64.79
2023-03-30T01:09:22.811Z,64.17
2023-03-30T01:11:50.768Z,63.92
2023-03-30T01:14:18.841Z,63.93
2023-03-30T01:17:21.552Z,64.13
2023-03-30T01:20:13.206Z,64.19
2023-03-30T01:23:27.569Z,63.49
2023-03-30T01:26:39.912Z,64.03
2023-03-30T01:29:37.018Z,64.08
2023-03-30T01:32:24.975Z,64.04
2023-03-30T01:35:32.270Z,64.21
2023-03-30T01:38:16.433Z,64.08
2023-03-30T01:40:58.687Z,63.57
2023-03-30T01:43:52.814Z,63.48
2023-03-30T01:46:46.171Z,62.97
2023-03-30T01:49:31.899Z,62.78
2023-03-30T01:52:25.856Z,62.76
2023-03-30T01:55:19.746Z,63.29
2023-03-30T01:57:55.614Z,62.84
2023-03-30T02:00:25.473Z,62.83
2023-03-30T02:03:00.142Z,62.94
2023-03-30T02:05:30.853Z,62.77
2023-03-30T02:08:07.618Z,62.65
2023-03-30T02:10:38.471Z,62.26
2023-03-30T02:13:08.349Z,62.59
2023-03-30T02:15:42.126Z,62.91
2023-03-30T02:18:11.114Z,62.75
2023-03-30T02:20:39.126Z,63.01
2023-03-30T02:23:07.783Z,63.71
2023-03-30T02:25:38.656Z,63.18
2023-03-30T02:28:09.139Z,62.69
2023-03-30T02:30:44.136Z,63.04
2023-03-30T02:33:42.188Z,63.70
2023-03-30T02:36:40.040Z,63.66
2023-03-30T02:39:30.292Z,63.82
2023-03-30T02:42:34.147Z,64.06
2023-03-30T02:45:29.553Z,64.25
2023-03-30T02:48:19.909Z,64.10
2023-03-30T02:51:11.669Z,64.26
2023-03-30T02:54:10.175Z,64.75
2023-03-30T02:56:57.073Z,63.67
2023-03-30T02:59:37.837Z,63.61
2023-03-30T03:02:37.499Z,63.31
2023-03-30T03:05:07.508Z,63.50
2023-03-30T03:07:35.409Z,63.65
2023-03-30T03:10:02.644Z,64.55
2023-03-30T03:12:30.212Z,64.08
2023-03-30T03:14:57.896Z,64.08
2023-03-30T03:17:29.659Z,63.68
2023-03-30T03:19:56.923Z,63.63
2023-03-30T03:22:24.606Z,63.89
2023-03-30T03:24:51.863Z,63.95
2023-03-30T03:27:19.443Z,63.90
2023-03-30T03:29:47.643Z,63.54
2023-03-30T03:32:16.108Z,63.40
2023-03-30T03:34:45.912Z,63.34
2023-03-30T03:37:13.716Z,63.85
2023-03-30T03:39:40.967Z,63.99
2023-03-30T03:42:08.797Z,64.12
2023-03-30T03:44:37.761Z,64.23
2023-03-30T03:47:05.446Z,64.29
2023-03-30T03:49:32.680Z,64.25
2023-03-30T03:52:00.412Z,64.83
2023-03-30T03:54:27.674Z,65.55
2023-03-30T03:56:55.267Z,65.77
2023-03-30T03:59:22.710Z,65.79
2023-03-30T04:01:50.490Z,65.30
2023-03-30T04:04:17.958Z,65.28
2023-03-30T04:06:46.199Z,65.34
2023-03-30T04:09:13.633Z,65.81
2023-03-30T04:11:41.644Z,66.03
2023-03-30T04:14:08.865Z,65.76
2023-03-30T04:16:37.373Z,65.71
2023-03-30T04:19:04.712Z,66.31
2023-03-30T04:21:32.269Z,66.11
2023-03-30T04:23:59.546Z,65.85
2023-03-30T04:26:28.645Z,65.29
2023-03-30T04:28:55.906Z,65.15
2023-03-30T04:31:24.049Z,65.11
2023-03-30T04:33:53.431Z,66.01
2023-03-30T04:36:21.522Z,65.54
2023-03-30T04:38:58.738Z,66.14
2023-03-30T04:41:36.070Z,66.51
2023-03-30T04:44:07.017Z,66.16
2023-03-30T04:46:35.388Z,66.47
2023-03-30T04:49:04.054Z,65.84
2023-03-30T04:51:32.375Z,65.93
2023-03-30T04:53:59.670Z,66.20
2023-03-30T04:56:27.961Z,65.89
2023-03-30T04:58:56.122Z,65.98
2023-03-30T05:01:24.539Z,66.44
2023-03-30T05:03:52.177Z,66.92
2023-03-30T05:06:19.842Z,66.65
2023-03-30T05:08:47.171Z,66.65
2023-03-30T05:11:14.718Z,66.52
2023-03-30T05:13:42.081Z,66.32
2023-03-30T05:16:09.984Z,66.12
2023-03-30T05:18:38.908Z,65.60
2023-03-30T05:21:06.936Z,65.68
2023-03-30T05:23:34.364Z,65.24
2023-03-30T05:26:04.596Z,65.20
2023-03-30T05:28:32.553Z,65.86
2023-03-30T05:31:00.494Z,65.21
2023-03-30T05:33:27.876Z,64.88
2023-03-30T05:35:55.738Z,65.25
2023-03-30T05:38:23.443Z,65.08
2023-03-30T05:40:54.618Z,64.63
2023-03-30T05:43:22.021Z,64.74
2023-03-30T05:45:50.587Z,64.18
2023-03-30T05:48:17.898Z,64.89
2023-03-30T05:50:48.247Z,64.17
2023-03-30T05:53:16.814Z,62.81
2023-03-30T05:55:49.661Z,62.81
2023-03-30T05:58:18.183Z,62.42
2023-03-30T06:00:48.294Z,61.69
2023-03-30T06:03:15.814Z,62.75
2023-03-30T06:05:44.189Z,63.01
2023-03-30T06:08:13.658Z,63.04
2023-03-30T06:10:42.213Z,62.89
2023-03-30T06:13:09.434Z,62.94
2023-03-30T06:15:37.046Z,62.91
2023-03-30T06:18:04.703Z,62.59
2023-03-30T06:20:32.337Z,62.43
2023-03-30T06:22:59.604Z,61.76
2023-03-30T06:25:27.363Z,61.02
2023-03-30T06:27:54.628Z,60.72
2023-03-30T06:30:22.681Z,59.98
2023-03-30T06:32:50.070Z,60.14
2023-03-30T06:35:17.790Z,60.47
2023-03-30T06:37:45.070Z,60.32
2023-03-30T06:40:13.900Z,59.48
2023-03-30T06:42:44.874Z,58.58
2023-03-30T06:45:13.686Z,58.49
2023-03-30T06:47:41.751Z,58.07
2023-03-30T06:50:10.201Z,57.91
2023-03-30T06:52:38.460Z,57.46
2023-03-30T06:55:06.666Z,55.95
2023-03-30T06:57:34.044Z,55.64
2023-03-30T07:00:01.946Z,55.95
2023-03-30T07:02:30.261Z,55.86
2023-03-30T07:04:57.815Z,54.70
2023-03-30T07:07:25.128Z,54.71
2023-03-30T07:09:52.957Z,54.44
2023-03-30T07:12:20.279Z,53.09
2023-03-30T07:14:48.055Z,51.76
2023-03-30T07:17:16.678Z,51.97
2023-03-30T07:19:44.248Z,49.28
2023-03-30T07:22:11.515Z,45.71
2023-03-30T07:24:39.074Z,43.07
2023-03-30T07:27:06.378Z,39.55
2023-03-30T07:29:33.944Z,38.64
2023-03-30T07:32:01.216Z,39.13
2023-03-30T07:34:29.633Z,38.23
2023-03-30T07:36:56.882Z,38.57
2023-03-30T07:39:24.999Z,39.70
2023-03-30T07:41:52.357Z,41.14
2023-03-30T07:44:20.020Z,40.70
2023-03-30T07:46:47.421Z,37.71
2023-03-30T07:49:15.353Z,34.27
2023-03-30T07:51:42.584Z,28.15
2023-03-30T07:54:10.695Z,25.11
2023-03-30T07:56:39.661Z,24.26
2023-03-30T07:59:08.272Z,22.78
2023-03-30T08:01:36.026Z,21.43
2023-03-30T08:04:03.621Z,20.27
2023-03-30T08:06:31.019Z,20.92
2023-03-30T08:08:58.582Z,21.84
2023-03-30T08:11:25.850Z,22.08
2023-03-30T08:13:53.512Z,22.96
2023-03-30T08:16:21.125Z,26.02
2023-03-30T08:18:48.837Z,26.16
2023-03-30T08:21:16.167Z,23.53
2023-03-30T08:23:43.989Z,22.37
2023-03-30T08:26:11.476Z,21.69
2023-03-30T08:28:39.342Z,21.69
2023-03-30T08:31:11.039Z,24.03
2023-03-30T08:33:39.633Z,27.95
2023-03-30T08:36:07.127Z,28.88
2023-03-30T08:38:34.753Z,27.54
2023-03-30T08:41:02.471Z,27.02
2023-03-30T08:43:52.996Z,26.45
2023-03-30T08:46:21.181Z,27.33
2023-03-30T08:48:52.066Z,28.98
2023-03-30T08:51:29.632Z,30.65
2023-03-30T08:54:07.918Z,31.59
2023-03-30T08:56:44.239Z,31.73
2023-03-30T08:59:37.743Z,33.17
2023-03-30T09:02:17.240Z,34.10
2023-03-30T09:05:01.928Z,34.02
2023-03-30T09:07:39.303Z,27.16
2023-03-30T09:10:14.043Z,21.27
2023-03-30T09:12:43.660Z,19.19
2023-03-30T09:15:36.216Z,17.97
2023-03-30T09:18:17.173Z,18.76
2023-03-30T09:20:47.881Z,19.04
2023-03-30T09:23:18.248Z,18.89
2023-03-30T09:26:13.360Z,17.34
2023-03-30T09:29:08.571Z,14.41
2023-03-30T09:31:44.457Z,13.08
2023-03-30T09:34:30.440Z,12.07
2023-03-30T09:37:06.040Z,15.07
2023-03-30T09:39:36.952Z,16.42
2023-03-30T09:42:12.019Z,12.58
2023-03-30T09:44:56.965Z,11.79
2023-03-30T09:47:39.115Z,12.08
2023-03-30T09:50:12.463Z,10.54
2023-03-30T09:52:41.800Z,12.24
2023-03-30T09:55:21.661Z,15.55
2023-03-30T09:57:51.251Z,19.45
2023-03-30T10:00:34.274Z,21.90
2023-03-30T10:03:06.712Z,22.98
2023-03-30T10:05:39.011Z,23.53
2023-03-30T10:08:25.054Z,25.48
2023-03-30T10:10:58.270Z,27.60
2023-03-30T10:13:39.206Z,29.14
2023-03-30T10:16:22.554Z,29.40
2023-03-30T10:19:01.906Z,29.61
2023-03-30T10:21:40.246Z,30.27
2023-03-30T10:24:25.370Z,29.68
2023-03-30T10:27:03.414Z,22.43
2023-03-30T10:29:31.336Z,22.10
2023-03-30T10:32:28.280Z,19.62
2023-03-30T10:35:02.091Z,19.36
2023-03-30T10:37:42.803Z,19.50
2023-03-30T10:40:23.811Z,17.55
2023-03-30T10:42:58.054Z,14.19
2023-03-30T10:45:49.304Z,13.47
2023-03-30T10:48:46.908Z,13.57
2023-03-30T10:51:52.682Z,13.07
2023-03-30T10:54:55.638Z,12.36
2023-03-30T10:57:41.243Z,11.99
2023-03-30T11:00:38.557Z,14.46
2023-03-30T11:03:17.905Z,17.10
2023-03-30T11:05:51.740Z,16.45
2023-03-30T11:08:30.500Z,13.96
2023-03-30T11:11:00.609Z,13.06
2023-03-30T11:13:37.163Z,11.63
2023-03-30T11:16:26.045Z,11.84
2023-03-30T11:19:19.738Z,11.88
2023-03-30T11:22:21.262Z,12.35
2023-03-30T11:24:52.740Z,14.05
2023-03-30T11:27:53.107Z,18.11
2023-03-30T11:30:30.112Z,20.13
2023-03-30T11:33:08.597Z,24.91
2023-03-30T11:36:00.654Z,27.93
2023-03-30T11:38:42.047Z,30.91
2023-03-30T11:41:41.129Z,32.68
2023-03-30T11:44:12.836Z,32.27
2023-03-30T11:47:16.466Z,24.85
2023-03-30T11:50:23.231Z,19.13
2023-03-30T11:53:00.487Z,16.53
2023-03-30T11:56:01.987Z,18.17
2023-03-30T11:58:47.720Z,17.25
2023-03-30T12:01:36.793Z,20.34
2023-03-30T12:04:17.011Z,23.18
2023-03-30T12:07:00.968Z,25.24
2023-03-30T12:09:40.488Z,27.41
2023-03-30T12:12:22.469Z,31.11
2023-03-30T12:15:36.948Z,32.77
2023-03-30T12:18:32.935Z,34.31
2023-03-30T12:21:39.780Z,35.94
2023-03-30T12:25:05.432Z,38.36
2023-03-30T12:27:37.398Z,39.57
2023-03-30T12:30:29.914Z,40.85
2023-03-30T12:33:20.363Z,41.66
2023-03-30T12:35:55.633Z,42.12
2023-03-30T12:38:38.596Z,42.89
2023-03-30T12:41:15.389Z,43.14
2023-03-30T12:44:29.522Z,43.75
2023-03-30T12:47:24.984Z,44.48
2023-03-30T12:50:27.825Z,45.24
2023-03-30T12:53:32.748Z,46.21
2023-03-30T12:56:43.992Z,46.21
2023-03-30T12:59:32.847Z,47.49
2023-03-30T13:02:30.808Z,47.89
2023-03-30T13:04:58.366Z,48.30
2023-03-30T13:07:35.211Z,47.76
2023-03-30T13:10:29.490Z,48.60
2023-03-30T13:13:00.182Z,48.80
2023-03-30T13:15:30.090Z,49.18
2023-03-30T13:18:23.209Z,49.48
2023-03-30T13:20:56.561Z,49.20
2023-03-30T13:23:31.510Z,49.69
2023-03-30T13:26:34.476Z,50.17
2023-03-30T13:29:15.289Z,50.63
2023-03-30T13:31:54.242Z,51.67
2023-03-30T13:35:19.436Z,52.30
2023-03-30T13:38:35.126Z,52.61
2023-03-30T13:41:32.648Z,53.24
2023-03-30T13:44:40.501Z,54.45
2023-03-30T13:47:26.015Z,54.46
2023-03-30T13:50:15.617Z,54.75
2023-03-30T13:52:48.938Z,54.73
2023-03-30T13:55:30.206Z,55.62
2023-03-30T13:58:11.444Z,56.56
2023-03-30T14:01:00.177Z,59.13
2023-03-30T14:03:49.315Z,59.02
2023-03-30T14:06:22.803Z,60.12
2023-03-30T14:08:59.233Z,60.46
2023-03-30T14:11:52.656Z,60.36
2023-03-30T14:14:35.983Z,61.01
2023-03-30T14:17:23.798Z,61.16
2023-03-30T14:20:13.265Z,61.89
2023-03-30T14:22:46.228Z,61.63
2023-03-30T14:25:27.463Z,62.95
2023-03-30T14:27:57.877Z,63.96
2023-03-30T14:30:29.917Z,65.71
2023-03-30T14:33:11.855Z,67.17
2023-03-30T14:35:56.743Z,68.25
2023-03-30T14:38:30.157Z,69.95
2023-03-30T14:40:58.626Z,71.79
2023-03-30T14:43:31.792Z,72.25
2023-03-30T14:46:04.936Z,74.01
2023-03-30T14:48:37.725Z,74.64
2023-03-30T14:51:21.171Z,75.95
2023-03-30T14:53:49.589Z,76.40
2023-03-30T14:56:19.111Z,77.61
2023-03-30T14:58:49.152Z,77.93
2023-03-30T15:01:26.095Z,77.39
2023-03-30T15:03:54.111Z,77.30
2023-03-30T15:06:26.752Z,78.32
2023-03-30T15:09:01.292Z,78.38
2023-03-30T15:11:33.570Z,80.26
2023-03-30T15:14:09.941Z,81.56
2023-03-30T15:16:38.837Z,81.55
2023-03-30T15:19:37.896Z,80.98
2023-03-30T15:22:29.162Z,80.99
2023-03-30T15:25:03.535Z,80.96
2023-03-30T15:27:33.050Z,81.59
2023-03-30T15:30:03.081Z,81.42
2023-03-30T15:32:44.113Z,82.02
2023-03-30T15:35:49.227Z,82.22
2023-03-30T15:38:19.038Z,82.62
2023-03-30T15:40:50.328Z,82.50
2023-03-30T15:43:22.373Z,84.20
2023-03-30T15:45:59.878Z,84.31
2023-03-30T15:48:36.504Z,84.37
2023-03-30T15:51:15.732Z,84.44
2023-03-30T15:53:55.867Z,85.43
2023-03-30T15:56:37.475Z,86.44
2023-03-30T15:59:09.891Z,86.90
2023-03-30T16:01:47.995Z,86.30
2023-03-30T16:04:19.200Z,86.58
2023-03-30T16:06:47.583Z,87.50
2023-03-30T16:09:16.844Z,88.56
2023-03-30T16:11:46.252Z,89.00
2023-03-30T16:14:20.508Z,88.80
2023-03-30T16:16:48.960Z,89.02
2023-03-30T16:19:19.791Z,89.79
2023-03-30T16:21:47.097Z,90.95
2023-03-30T16:24:14.657Z,91.82
2023-03-30T16:26:41.954Z,91.42
2023-03-30T16:29:21.948Z,93.07
2023-03-30T16:31:51.488Z,94.17
2023-03-30T16:34:22.165Z,94.23
2023-03-30T16:36:50.685Z,95.25
2023-03-30T16:39:18.445Z,95.71
2023-03-30T16:41:48.428Z,97.07
2023-03-30T16:44:17.951Z,97.77
2023-03-30T16:46:47.126Z,98.11
2023-03-30T16:49:24.776Z,97.45
2023-03-30T16:51:56.990Z,97.38
2023-03-30T16:54:31.048Z,98.74
2023-03-30T16:57:01.666Z,99.00
2023-03-30T16:59:31.993Z,98.54
2023-03-30T17:02:00.536Z,99.85
2023-03-30T17:04:28.314Z,99.53
2023-03-30T17:06:56.299Z,100.00
2023-03-30T17:09:23.910Z,100.00
2023-03-30T17:11:51.628Z,100.00
2023-03-30T17:14:20.886Z,100.00
2023-03-30T17:16:48.370Z,100.00
2023-03-30T17:19:16.045Z,100.00
2023-03-30T17:21:43.983Z,100.00
2023-03-30T17:24:12.795Z,100.00
2023-03-30T17:26:41.141Z,100.00
2023-03-30T17:29:10.872Z,100.00
2023-03-30T17:31:39.051Z,100.00
2023-03-30T17:34:07.572Z,100.00
2023-03-30T17:36:35.044Z,100.00
2023-03-30T17:39:05.558Z,100.00
2023-03-30T17:41:34.319Z,100.00
2023-03-30T17:44:01.964Z,100.00
2023-03-30T17:46:29.492Z,100.00
2023-03-30T17:48:58.905Z,100.00
2023-03-30T17:51:26.421Z,100.00
2023-03-30T17:53:54.187Z,100.00
2023-03-30T17:56:21.524Z,100.00
2023-03-30T17:58:49.758Z,100.00
2023-03-30T18:01:17.225Z,100.00
2023-03-30T18:03:45.253Z,100.00
2023-03-30T18:06:13.214Z,100.00
2023-03-30T18:08:43.067Z,100.00
2023-03-30T18:11:10.594Z,100.00
2023-03-30T18:13:38.344Z,100.00
2023-03-30T18:16:06.230Z,100.00
2023-03-30T18:18:33.909Z,99.44
2023-03-30T18:21:04.614Z,98.70
2023-03-30T18:23:37.564Z,97.70
2023-03-30T18:26:10.241Z,97.18
2023-03-30T18:28:44.017Z,97.05
2023-03-30T18:31:11.880Z,96.91
2023-03-30T18:33:39.696Z,97.14
2023-03-30T18:36:12.980Z,97.18
2023-03-30T18:38:42.539Z,97.39
2023-03-30T18:41:12.930Z,96.90
2023-03-30T18:43:40.787Z,97.21
2023-03-30T18:46:12.734Z,97.94
2023-03-30T18:48:40.737Z,97.98
2023-03-30T18:51:12.101Z,98.18
2023-03-30T18:53:40.057Z,97.99
2023-03-30T18:56:11.962Z,97.50
2023-03-30T18:58:42.152Z,97.76
2023-03-30T19:01:12.965Z,98.65
2023-03-30T19:03:41.791Z,98.73
2023-03-30T19:06:19.787Z,99.33
2023-03-30T19:08:47.410Z,99.63
2023-03-30T19:11:23.387Z,98.70
2023-03-30T19:13:51.594Z,99.39
2023-03-30T19:16:19.012Z,100.00
2023-03-30T19:18:46.705Z,100.00
2023-03-30T19:21:17.602Z,100.00
2023-03-30T19:23:45.445Z,100.00
2023-03-30T19:26:13.103Z,100.00
2023-03-30T19:28:40.884Z,100.00
2023-03-30T19:31:13.507Z,100.00
2023-03-30T19:33:41.700Z,100.00
2023-03-30T19:36:10.513Z,100.00
2023-03-30T19:38:38.634Z,100.00
2023-03-30T19:41:07.520Z,100.00
2023-03-30T19:43:35.619Z,100.00
2023-03-30T19:46:03.639Z,100.00
2023-03-30T19:48:31.334Z,100.00
2023-03-30T19:50:58.631Z,100.00
2023-03-30T19:53:26.155Z,100.00
2023-03-30T19:55:54.424Z,100.00
2023-03-30T19:58:21.992Z,100.00
2023-03-30T20:00:49.639Z,100.00
2023-03-30T20:03:17.436Z,99.61
2023-03-30T20:05:50.614Z,100.00
2023-03-30T20:08:24.201Z,100.00
2023-03-30T20:10:53.056Z,100.00
2023-03-30T20:13:24.525Z,100.00
2023-03-30T20:15:56.233Z,100.00
2023-03-30T20:18:24.079Z,100.00
2023-03-30T20:20:51.527Z,100.00
2023-03-30T20:23:19.461Z,100.00
2023-03-30T20:25:49.558Z,100.00
2023-03-30T20:28:17.942Z,100.00
2023-03-30T20:30:45.450Z,100.00
2023-03-30T20:33:13.474Z,100.00
2023-03-30T20:35:40.867Z,100.00
2023-03-30T20:38:08.667Z,100.00
2023-03-30T20:40:36.187Z,100.00
2023-03-30T20:43:04.111Z,100.00
2023-03-30T20:45:31.909Z,100.00
2023-03-30T20:48:06.208Z,99.76
2023-03-30T20:50:34.060Z,99.18
2023-03-30T20:53:02.294Z,99.47
2023-03-30T20:55:29.683Z,99.31
2023-03-30T20:57:57.295Z,99.11
2023-03-30T21:00:24.656Z,98.83
2023-03-30T21:02:52.344Z,97.89
2023-03-30T21:05:19.681Z,98.50
2023-03-30T21:07:48.392Z,98.42
2023-03-30T21:10:16.578Z,98.78
2023-03-30T21:12:44.343Z,98.95
2023-03-30T21:15:11.947Z,98.79
2023-03-30T21:17:39.767Z,98.56
2023-03-30T21:20:09.352Z,98.67
2023-03-30T21:22:37.478Z,98.59
2023-03-30T21:25:05.317Z,97.15
2023-03-30T21:27:33.005Z,97.99
2023-03-30T21:30:00.598Z,97.25
2023-03-30T21:32:30.120Z,96.30
2023-03-30T21:34:58.674Z,96.48
2023-03-30T21:37:26.427Z,96.03
2023-03-30T21:39:53.684Z,96.49
2023-03-30T21:42:21.255Z,96.30
2023-03-30T21:44:48.513Z,95.48
2023-03-30T21:47:16.775Z,95.40
2023-03-30T21:49:44.081Z,95.18
2023-03-30T21:52:11.941Z,95.40
2023-03-30T21:54:39.518Z,95.59
2023-03-30T21:57:07.207Z,95.10
2023-03-30T21:59:34.666Z,94.68
2023-03-30T22:02:02.265Z,94.58
2023-03-30T22:04:29.539Z,95.23
2023-03-30T22:06:57.289Z,95.46
2023-03-30T22:09:24.590Z,94.72
2023-03-30T22:11:54.141Z,94.95
2023-03-30T22:14:22.212Z,95.10
2023-03-30T22:16:49.906Z,95.42
2023-03-30T22:19:19.051Z,95.45
2023-03-30T22:21:46.607Z,95.58
2023-03-30T22:24:13.897Z,95.41
2023-03-30T22:26:41.571Z,95.20
2023-03-30T22:29:08.880Z,94.66
2023-03-30T22:31:36.479Z,94.73
2023-03-30T22:34:04.164Z,94.71
2023-03-30T22:36:32.318Z,95.13
2023-03-30T22:39:02.259Z,94.82
2023-03-30T22:41:30.431Z,94.72
2023-03-30T22:43:58.854Z,95.29
2023-03-30T22:46:28.092Z,95.72
2023-03-30T22:48:56.158Z,95.52
2023-03-30T22:51:28.195Z,95.27
2023-03-30T22:54:00.613Z,95.39
2023-03-30T22:56:30.070Z,95.72
2023-03-30T22:58:59.983Z,95.48
2023-03-30T23:01:32.557Z,95.38
2023-03-30T23:04:00.526Z,95.77
2023-03-30T23:06:28.202Z,95.80
2023-03-30T23:08:55.496Z,96.17
2023-03-30T23:11:23.739Z,95.56
2023-03-30T23:13:52.543Z,96.13
2023-03-30T23:16:20.209Z,96.68
2023-03-30T23:18:48.462Z,96.73
2023-03-30T23:21:16.938Z,96.74
2023-03-30T23:23:44.296Z,97.06
2023-03-30T23:26:12.008Z,97.63
2023-03-30T23:28:42.000Z,97.24
2023-03-30T23:31:14.056Z,97.48
2023-03-30T23:33:42.325Z,96.98
2023-03-30T23:36:13.969Z,97.30
2023-03-30T23:38:41.900Z,96.99
2023-03-30T23:41:13.196Z,96.64
2023-03-30T23:43:40.999Z,96.64
2023-03-30T23:46:10.020Z,96.08
2023-03-30T23:48:37.880Z,96.07
2023-03-30T23:51:06.808Z,95.78
2023-03-30T23:53:35.028Z,95.70
2023-03-30T23:56:06.617Z,95.90
2023-03-30T23:58:34.387Z,95.98
